createdAt,value
2017-12-10T00:01:18.563Z,99693
2017-12-10T00:03:48.665Z,99689
2017-12-10T00:06:21.524Z,99688
2017-12-10T00:08:51.020Z,99686
2017-12-10T00:11:21.217Z,99688
2017-12-10T00:13:52.627Z,99685
2017-12-10T00:16:21.854Z,99688
2017-12-10T00:18:51.109Z,99681
2017-12-10T00:21:20.535Z,99663
2017-12-10T00:23:50.418Z,99665
2017-12-10T00:26:19.619Z,99670
2017-12-10T00:28:50.616Z,99662
2017-12-10T00:31:19.845Z,99655
2017-12-10T00:33:49.155Z,99650
2017-12-10T00:36:18.437Z,99644
2017-12-10T00:38:48.788Z,99637
2017-12-10T00:41:18.497Z,99641
2017-12-10T00:43:47.833Z,99637
2017-12-10T00:46:18.212Z,99633
2017-12-10T00:48:47.410Z,99634
2017-12-10T00:51:16.761Z,99634
2017-12-10T00:53:46.819Z,99624
2017-12-10T00:56:16.008Z,99621
2017-12-10T00:58:45.447Z,99622
2017-12-10T01:01:14.696Z,99632
2017-12-10T01:03:45.725Z,99618
2017-12-10T01:06:15.687Z,99621
2017-12-10T01:08:44.971Z,99615
2017-12-10T01:11:14.152Z,99613
2017-12-10T01:13:43.484Z,99608
2017-12-10T01:16:13.471Z,99606
2017-12-10T01:18:42.768Z,99598
2017-12-10T01:21:11.965Z,99594
2017-12-10T01:23:41.115Z,99589
2017-12-10T01:26:10.343Z,99592
2017-12-10T01:28:39.509Z,99593
2017-12-10T01:31:08.667Z,99591
2017-12-10T01:33:38.606Z,99586
2017-12-10T01:36:08.843Z,99588
2017-12-10T01:38:38.141Z,99591
2017-12-10T01:41:08.130Z,99578
2017-12-10T01:43:37.354Z,99585
2017-12-10T01:46:06.507Z,99580
2017-12-10T01:48:35.758Z,99576
2017-12-10T01:51:05.359Z,99567
2017-12-10T01:53:34.552Z,99561
2017-12-10T01:56:03.694Z,99556
2017-12-10T01:58:34.685Z,99555
2017-12-10T02:01:03.946Z,99551
2017-12-10T02:03:33.130Z,99545
2017-12-10T02:06:02.334Z,99545
2017-12-10T02:08:32.243Z,99542
2017-12-10T02:11:01.493Z,99531
2017-12-10T02:13:31.745Z,99536
2017-12-10T02:16:00.943Z,99533
2017-12-10T02:18:30.104Z,99521
2017-12-10T02:21:00.038Z,99515
2017-12-10T02:23:29.211Z,99515
2017-12-10T02:25:58.375Z,99516
2017-12-10T02:28:28.386Z,99511
2017-12-10T02:30:57.546Z,99505
2017-12-10T02:33:26.715Z,99502
2017-12-10T02:35:56.024Z,99500
2017-12-10T02:38:25.226Z,99498
2017-12-10T02:40:54.407Z,99499
2017-12-10T02:43:23.695Z,99499
2017-12-10T02:45:52.839Z,99498
2017-12-10T02:48:22.043Z,99486
2017-12-10T02:50:51.351Z,99476
2017-12-10T02:53:20.577Z,99473
2017-12-10T02:55:49.878Z,99467
2017-12-10T02:58:19.090Z,99462
2017-12-10T03:00:48.338Z,99465
2017-12-10T03:03:17.515Z,99462
2017-12-10T03:05:46.784Z,99464
2017-12-10T03:08:15.981Z,99460
2017-12-10T03:10:45.205Z,99458
2017-12-10T03:13:15.159Z,99444
2017-12-10T03:15:44.305Z,99442
2017-12-10T03:18:13.450Z,99447
2017-12-10T03:20:44.858Z,99447
2017-12-10T03:23:14.015Z,99439
2017-12-10T03:25:43.921Z,99446
2017-12-10T03:28:13.672Z,99441
2017-12-10T03:30:43.596Z,99438
2017-12-10T03:33:13.555Z,99429
2017-12-10T03:35:43.754Z,99442
2017-12-10T03:38:13.654Z,99434
2017-12-10T03:40:42.845Z,99430
2017-12-10T03:43:12.111Z,99437
2017-12-10T03:45:41.255Z,99429
2017-12-10T03:48:10.395Z,99417
2017-12-10T03:50:39.721Z,99418
2017-12-10T03:53:08.836Z,99413
2017-12-10T03:55:38.015Z,99413
2017-12-10T03:58:07.211Z,99405
2017-12-10T04:00:36.422Z,99405
2017-12-10T04:03:05.558Z,99403
2017-12-10T04:05:35.526Z,99405
2017-12-10T04:08:05.411Z,99399
2017-12-10T04:10:34.556Z,99394
2017-12-10T04:13:04.518Z,99391
2017-12-10T04:15:33.682Z,99395
2017-12-10T04:18:02.866Z,99391
2017-12-10T04:20:32.388Z,99388
2017-12-10T04:23:02.474Z,99385
2017-12-10T04:25:31.633Z,99377
2017-12-10T04:28:01.373Z,99363
2017-12-10T04:30:30.520Z,99368
2017-12-10T04:32:59.634Z,99360
2017-12-10T04:35:28.764Z,99355
2017-12-10T04:37:57.915Z,99357
2017-12-10T04:40:27.076Z,99350
2017-12-10T04:42:56.257Z,99348
2017-12-10T04:45:25.458Z,99346
2017-12-10T04:47:54.593Z,99340
2017-12-10T04:50:23.846Z,99341
2017-12-10T04:52:53.041Z,99335
2017-12-10T04:55:22.266Z,99334
2017-12-10T04:57:51.980Z,99329
2017-12-10T05:00:21.248Z,99333
2017-12-10T05:02:51.307Z,99339
2017-12-10T05:05:20.920Z,99328
2017-12-10T05:07:50.124Z,99341
2017-12-10T05:10:19.394Z,99330
2017-12-10T05:15:12.419Z,99321
2017-12-10T05:17:41.545Z,99317
2017-12-10T05:20:10.668Z,99315
2017-12-10T05:22:40.988Z,99309
2017-12-10T05:25:10.081Z,99305
2017-12-10T05:27:39.969Z,99301
2017-12-10T05:30:09.804Z,99276
2017-12-10T05:32:38.938Z,99285
2017-12-10T05:35:08.097Z,99279
2017-12-10T05:37:38.149Z,99278
2017-12-10T05:40:07.359Z,99266
2017-12-10T05:42:36.558Z,99260
2017-12-10T05:45:06.123Z,99264
2017-12-10T05:47:35.314Z,99262
2017-12-10T05:50:04.509Z,99246
2017-12-10T05:52:34.412Z,99256
2017-12-10T05:55:03.525Z,99257
2017-12-10T05:57:32.723Z,99256
2017-12-10T06:00:02.486Z,99258
2017-12-10T06:02:31.615Z,99248
2017-12-10T06:05:00.765Z,99246
2017-12-10T06:07:29.928Z,99242
2017-12-10T06:09:59.152Z,99242
2017-12-10T06:12:28.296Z,99235
2017-12-10T06:14:57.466Z,99229
2017-12-10T06:17:26.614Z,99223
2017-12-10T06:19:55.776Z,99219
2017-12-10T06:22:25.013Z,99213
2017-12-10T06:24:54.920Z,99211
2017-12-10T06:27:24.099Z,99219
2017-12-10T06:29:53.623Z,99212
2017-12-10T06:32:22.887Z,99208
2017-12-10T06:34:52.840Z,99204
2017-12-10T06:37:22.046Z,99205
2017-12-10T06:39:51.340Z,99195
2017-12-10T06:42:20.561Z,99194
2017-12-10T06:44:49.839Z,99186
2017-12-10T06:47:19.118Z,99181
2017-12-10T06:49:48.416Z,99180
2017-12-10T06:52:18.757Z,99169
2017-12-10T06:54:47.965Z,99173
2017-12-10T06:57:17.203Z,99166
2017-12-10T06:59:46.743Z,99160
2017-12-10T07:02:16.043Z,99152
2017-12-10T07:04:45.206Z,99148
2017-12-10T07:07:14.396Z,99149
2017-12-10T07:09:44.284Z,99144
2017-12-10T07:12:13.515Z,99141
2017-12-10T07:14:42.660Z,99138
2017-12-10T07:17:11.757Z,99133
2017-12-10T07:19:41.788Z,99122
2017-12-10T07:22:11.963Z,99119
2017-12-10T07:24:42.101Z,99113
2017-12-10T07:27:11.263Z,99107
2017-12-10T07:29:41.274Z,99104
2017-12-10T07:32:10.383Z,99098
2017-12-10T07:34:39.526Z,99103
2017-12-10T07:37:10.232Z,99098
2017-12-10T07:39:39.412Z,99094
2017-12-10T07:42:08.625Z,99090
2017-12-10T07:44:38.746Z,99088
2017-12-10T07:47:08.190Z,99090
2017-12-10T07:49:37.346Z,99079
2017-12-10T07:52:06.543Z,99080
2017-12-10T07:54:36.429Z,99073
2017-12-10T07:57:05.762Z,99070
2017-12-10T07:59:35.975Z,99070
2017-12-10T08:02:05.266Z,99070
2017-12-10T08:04:34.426Z,99062
2017-12-10T08:07:03.597Z,99062
2017-12-10T08:09:32.730Z,99064
2017-12-10T08:12:01.871Z,99057
2017-12-10T08:14:31.595Z,99052
2017-12-10T08:17:01.498Z,99053
2017-12-10T08:19:30.651Z,99050
2017-12-10T08:21:59.968Z,99047
2017-12-10T08:24:29.103Z,99049
2017-12-10T08:26:58.243Z,99046
2017-12-10T08:29:28.259Z,99039
2017-12-10T08:31:57.441Z,99031
2017-12-10T08:34:26.590Z,99025
2017-12-10T08:36:55.938Z,99018
2017-12-10T08:39:25.283Z,99025
2017-12-10T08:41:54.448Z,99010
2017-12-10T08:44:24.488Z,98995
2017-12-10T08:46:53.670Z,98996
2017-12-10T08:49:22.856Z,98995
2017-12-10T08:51:52.522Z,98984
2017-12-10T08:54:22.469Z,98975
2017-12-10T08:56:51.688Z,98972
2017-12-10T08:59:20.926Z,98963
2017-12-10T09:01:50.151Z,98958
2017-12-10T09:04:19.342Z,98957
2017-12-10T09:06:48.662Z,98952
2017-12-10T09:09:17.979Z,98950
2017-12-10T09:11:47.350Z,98948
2017-12-10T09:14:18.815Z,98944
2017-12-10T09:16:48.019Z,98933
2017-12-10T09:19:17.471Z,98926
2017-12-10T09:21:46.683Z,98927
2017-12-10T09:24:15.866Z,98921
2017-12-10T09:26:45.068Z,98914
2017-12-10T09:29:15.161Z,98918
2017-12-10T09:31:44.335Z,98919
2017-12-10T09:34:13.495Z,98909
2017-12-10T09:36:42.707Z,98902
2017-12-10T09:39:11.839Z,98898
2017-12-10T09:41:41.759Z,98895
2017-12-10T09:44:11.683Z,98892
2017-12-10T09:46:40.892Z,98888
2017-12-10T09:49:10.016Z,98881
2017-12-10T09:51:39.949Z,98873
2017-12-10T09:54:09.074Z,98871
2017-12-10T09:56:38.253Z,98852
2017-12-10T09:59:09.943Z,98841
2017-12-10T10:01:39.204Z,98830
2017-12-10T10:04:08.325Z,98823
2017-12-10T10:06:37.477Z,98809
2017-12-10T10:09:07.341Z,98797
2017-12-10T10:11:36.509Z,98792
2017-12-10T10:14:05.721Z,98791
2017-12-10T10:16:34.907Z,98784
2017-12-10T10:19:04.089Z,98774
2017-12-10T10:21:33.262Z,98771
2017-12-10T10:24:02.393Z,98771
2017-12-10T10:26:31.543Z,98764
2017-12-10T10:29:01.734Z,98760
2017-12-10T10:31:31.281Z,98754
2017-12-10T10:34:00.563Z,98746
2017-12-10T10:36:29.984Z,98741
2017-12-10T10:38:59.465Z,98728
2017-12-10T10:41:28.851Z,98713
2017-12-10T10:43:58.371Z,98708
2017-12-10T10:46:29.143Z,98698
2017-12-10T10:48:59.336Z,98692
2017-12-10T10:51:29.558Z,98692
2017-12-10T10:53:59.684Z,98690
2017-12-10T10:56:29.010Z,98689
2017-12-10T10:58:58.869Z,98679
2017-12-10T11:01:28.834Z,98678
2017-12-10T11:03:58.556Z,98676
2017-12-10T11:06:28.257Z,98663
2017-12-10T11:08:58.275Z,98665
2017-12-10T11:11:27.460Z,98659
2017-12-10T11:13:57.407Z,98647
2017-12-10T11:16:26.626Z,98631
2017-12-10T11:18:56.228Z,98630
2017-12-10T11:21:25.387Z,98627
2017-12-10T11:23:54.557Z,98624
2017-12-10T11:26:23.891Z,98623
2017-12-10T11:28:53.847Z,98616
2017-12-10T11:31:23.002Z,98610
2017-12-10T11:33:52.807Z,98603
2017-12-10T11:36:22.126Z,98593
2017-12-10T11:38:51.318Z,98587
2017-12-10T11:41:20.858Z,98582
2017-12-10T11:43:51.646Z,98579
2017-12-10T11:46:21.066Z,98575
2017-12-10T11:48:50.777Z,98570
2017-12-10T11:51:20.273Z,98567
2017-12-10T11:53:49.881Z,98561
2017-12-10T11:56:19.682Z,98556
2017-12-10T11:58:48.878Z,98545
2017-12-10T12:01:19.733Z,98543
2017-12-10T12:03:49.071Z,98538
2017-12-10T12:06:18.256Z,98532
2017-12-10T12:08:47.410Z,98527
2017-12-10T12:11:17.447Z,98524
2017-12-10T12:13:46.628Z,98519
2017-12-10T12:16:16.463Z,98503
2017-12-10T12:18:46.582Z,98490
2017-12-10T12:21:15.728Z,98490
2017-12-10T12:23:45.000Z,98489
2017-12-10T12:26:14.274Z,98492
2017-12-10T12:28:44.191Z,98486
2017-12-10T12:31:13.352Z,98478
2017-12-10T12:33:42.589Z,98472
2017-12-10T12:36:11.737Z,98464
2017-12-10T12:38:41.707Z,98462
2017-12-10T12:41:10.872Z,98454
2017-12-10T12:43:40.738Z,98454
2017-12-10T12:46:09.910Z,98443
2017-12-10T12:48:39.851Z,98435
2017-12-10T12:51:10.570Z,98429
2017-12-10T12:53:39.732Z,98420
2017-12-10T12:56:09.698Z,98416
2017-12-10T12:58:39.127Z,98404
2017-12-10T13:03:47.157Z,98391
2017-12-10T13:06:16.309Z,98384
2017-12-10T13:08:45.480Z,98377
2017-12-10T13:11:14.664Z,98371
2017-12-10T13:13:43.770Z,98366
2017-12-10T13:16:13.009Z,98362
2017-12-10T13:18:43.564Z,98357
2017-12-10T13:21:12.694Z,98352
2017-12-10T13:23:42.561Z,98338
2017-12-10T13:26:11.730Z,98341
2017-12-10T13:28:41.724Z,98333
2017-12-10T13:31:10.841Z,98334
2017-12-10T13:33:40.735Z,98325
2017-12-10T13:36:10.148Z,98317
2017-12-10T13:38:39.279Z,98311
2017-12-10T13:41:08.874Z,98298
2017-12-10T13:43:37.998Z,98292
2017-12-10T13:46:07.112Z,98286
2017-12-10T13:48:37.519Z,98277
2017-12-10T13:51:06.676Z,98280
2017-12-10T13:53:35.840Z,98266
2017-12-10T13:56:05.005Z,98266
2017-12-10T13:58:34.254Z,98263
2017-12-10T14:01:03.360Z,98254
2017-12-10T14:03:33.433Z,98253
2017-12-10T14:06:03.336Z,98248
2017-12-10T14:08:32.487Z,98239
2017-12-10T14:11:02.585Z,98242
2017-12-10T14:13:32.012Z,98235
2017-12-10T14:16:01.154Z,98231
2017-12-10T14:18:31.092Z,98230
2017-12-10T14:21:00.271Z,98226
2017-12-10T14:23:29.417Z,98228
2017-12-10T14:26:00.065Z,98231
2017-12-10T14:28:29.315Z,98223
2017-12-10T14:30:58.442Z,98224
2017-12-10T14:33:27.705Z,98215
2017-12-10T14:35:57.123Z,98211
2017-12-10T14:38:27.127Z,98198
2017-12-10T14:40:56.757Z,98190
2017-12-10T14:43:26.703Z,98189
2017-12-10T14:45:56.647Z,98187
2017-12-10T14:48:26.597Z,98182
2017-12-10T14:50:56.599Z,98184
2017-12-10T14:53:26.038Z,98185
2017-12-10T14:55:55.402Z,98184
2017-12-10T14:58:25.607Z,98180
2017-12-10T15:00:58.220Z,98174
2017-12-10T15:03:27.392Z,98169
2017-12-10T15:05:57.552Z,98166
2017-12-10T15:08:26.812Z,98165
2017-12-10T15:10:56.149Z,98164
2017-12-10T15:13:26.719Z,98158
2017-12-10T15:15:57.539Z,98157
2017-12-10T15:18:26.806Z,98148
2017-12-10T15:20:56.132Z,98145
2017-12-10T15:23:25.952Z,98140
2017-12-10T15:25:56.050Z,98140
2017-12-10T15:28:27.688Z,98141
2017-12-10T15:31:00.888Z,98134
2017-12-10T15:33:38.057Z,98133
2017-12-10T15:36:11.339Z,98121
2017-12-10T15:38:41.025Z,98125
2017-12-10T15:41:10.149Z,98116
2017-12-10T15:43:40.066Z,98110
2017-12-10T15:46:09.826Z,98104
2017-12-10T15:48:38.983Z,98103
2017-12-10T15:51:08.152Z,98098
2017-12-10T15:53:43.328Z,98093
2017-12-10T15:56:13.546Z,98096
2017-12-10T15:58:44.374Z,98091
2017-12-10T16:01:13.573Z,98088
2017-12-10T16:03:43.903Z,98085
2017-12-10T16:06:13.252Z,98086
2017-12-10T16:08:44.183Z,98080
2017-12-10T16:11:13.418Z,98074
2017-12-10T16:13:44.053Z,98070
2017-12-10T16:16:17.047Z,98065
2017-12-10T16:18:49.942Z,98063
2017-12-10T16:21:20.049Z,98060
2017-12-10T16:23:49.456Z,98059
2017-12-10T16:26:23.384Z,98064
2017-12-10T16:28:52.583Z,98049
2017-12-10T16:31:22.511Z,98045
2017-12-10T16:33:52.386Z,98045
2017-12-10T16:36:21.708Z,98040
2017-12-10T16:38:51.088Z,98034
2017-12-10T16:41:20.654Z,98032
2017-12-10T16:43:50.849Z,98028
2017-12-10T16:46:20.131Z,98023
2017-12-10T16:48:49.808Z,98023
2017-12-10T16:51:19.020Z,98021
2017-12-10T16:53:48.227Z,98008
2017-12-10T16:56:17.678Z,98005
2017-12-10T16:58:48.003Z,98006
2017-12-10T17:01:17.276Z,97996
2017-12-10T17:03:47.417Z,97991
2017-12-10T17:06:16.745Z,97995
2017-12-10T17:08:50.228Z,97989
2017-12-10T17:11:20.651Z,97982
2017-12-10T17:13:52.321Z,97978
2017-12-10T17:16:21.651Z,97967
2017-12-10T17:18:51.094Z,97965
2017-12-10T17:21:22.296Z,97963
2017-12-10T17:23:56.884Z,97958
2017-12-10T17:26:26.986Z,97956
2017-12-10T17:28:56.466Z,97951
2017-12-10T17:31:25.768Z,97950
2017-12-10T17:33:56.297Z,97950
2017-12-10T17:36:25.896Z,97949
2017-12-10T17:38:57.389Z,97949
2017-12-10T17:41:28.071Z,97946
2017-12-10T17:43:58.190Z,97941
2017-12-10T17:46:27.616Z,97938
2017-12-10T17:49:02.107Z,97932
2017-12-10T17:51:31.422Z,97926
2017-12-10T17:54:02.696Z,97929
2017-12-10T17:56:34.935Z,97926
2017-12-10T17:59:04.138Z,97918
2017-12-10T18:01:33.341Z,97914
2017-12-10T18:04:03.484Z,97908
2017-12-10T18:06:32.741Z,97903
2017-12-10T18:09:01.842Z,97902
2017-12-10T18:11:31.626Z,97893
2017-12-10T18:14:00.751Z,97889
2017-12-10T18:16:29.891Z,97883
2017-12-10T18:18:59.667Z,97881
2017-12-10T18:21:28.798Z,97877
2017-12-10T18:23:58.732Z,97877
2017-12-10T18:26:29.507Z,97871
2017-12-10T18:28:58.610Z,97864
2017-12-10T18:31:27.758Z,97856
2017-12-10T18:33:57.780Z,97859
2017-12-10T18:36:27.039Z,97851
2017-12-10T18:38:56.239Z,97850
2017-12-10T18:41:26.239Z,97853
2017-12-10T18:43:55.470Z,97852
2017-12-10T18:46:25.462Z,97847
2017-12-10T18:48:55.519Z,97848
2017-12-10T18:51:24.783Z,97844
2017-12-10T18:53:54.055Z,97834
2017-12-10T18:56:24.766Z,97833
2017-12-10T18:58:53.975Z,97830
2017-12-10T19:01:23.263Z,97829
2017-12-10T19:03:52.500Z,97831
2017-12-10T19:06:21.712Z,97826
2017-12-10T19:08:51.058Z,97819
2017-12-10T19:11:20.582Z,97813
2017-12-10T19:13:49.888Z,97812
2017-12-10T19:16:19.507Z,97805
2017-12-10T19:18:49.163Z,97797
2017-12-10T19:21:18.507Z,97795
2017-12-10T19:23:48.178Z,97796
2017-12-10T19:26:17.363Z,97794
2017-12-10T19:28:46.513Z,97785
2017-12-10T19:31:16.536Z,97780
2017-12-10T19:33:45.788Z,97780
2017-12-10T19:36:15.005Z,97785
2017-12-10T19:38:44.100Z,97783
2017-12-10T19:41:13.983Z,97784
2017-12-10T19:43:43.895Z,97780
2017-12-10T19:46:13.041Z,97779
2017-12-10T19:48:43.008Z,97773
2017-12-10T19:51:12.219Z,97776
2017-12-10T19:53:41.331Z,97776
2017-12-10T19:56:10.529Z,97768
2017-12-10T19:58:39.655Z,97765
2017-12-10T20:01:08.907Z,97760
2017-12-10T20:03:38.121Z,97754
2017-12-10T20:06:08.008Z,97744
2017-12-10T20:08:37.234Z,97738
2017-12-10T20:11:07.151Z,97739
2017-12-10T20:13:36.308Z,97739
2017-12-10T20:16:06.223Z,97736
2017-12-10T20:18:35.919Z,97732
2017-12-10T20:21:05.019Z,97724
2017-12-10T20:23:34.168Z,97721
2017-12-10T20:26:05.842Z,97719
2017-12-10T20:28:40.479Z,97719
2017-12-10T20:31:11.079Z,97717
2017-12-10T20:33:40.219Z,97717
2017-12-10T20:36:09.399Z,97720
2017-12-10T20:38:39.110Z,97710
2017-12-10T20:41:08.305Z,97709
2017-12-10T20:43:37.472Z,97707
2017-12-10T20:46:06.622Z,97714
2017-12-10T20:48:35.796Z,97719
2017-12-10T20:51:05.012Z,97716
2017-12-10T20:53:35.154Z,97717
2017-12-10T20:56:04.364Z,97718
2017-12-10T20:58:34.301Z,97717
2017-12-10T21:01:03.469Z,97717
2017-12-10T21:03:32.578Z,97721
2017-12-10T21:06:02.281Z,97717
2017-12-10T21:08:33.128Z,97721
2017-12-10T21:11:03.240Z,97721
2017-12-10T21:13:33.796Z,97714
2017-12-10T21:16:03.030Z,97716
2017-12-10T21:18:32.211Z,97711
2017-12-10T21:21:01.369Z,97718
2017-12-10T21:23:31.525Z,97720
2017-12-10T21:26:00.884Z,97709
2017-12-10T21:28:29.998Z,97711
2017-12-10T21:31:00.104Z,97699
2017-12-10T21:33:29.208Z,97702
2017-12-10T21:35:58.330Z,97701
2017-12-10T21:38:28.140Z,97694
2017-12-10T21:40:58.066Z,97697
2017-12-10T21:43:53.597Z,97697
2017-12-10T21:46:24.721Z,97692
2017-12-10T21:48:55.486Z,97690
2017-12-10T21:51:24.656Z,97689
2017-12-10T21:53:53.902Z,97684
2017-12-10T21:56:23.099Z,97685
2017-12-10T21:58:52.261Z,97689
2017-12-10T22:01:21.480Z,97686
2017-12-10T22:03:51.650Z,97697
2017-12-10T22:06:20.860Z,97693
2017-12-10T22:08:50.146Z,97698
2017-12-10T22:11:19.356Z,97692
2017-12-10T22:13:48.502Z,97690
2017-12-10T22:16:17.650Z,97692
2017-12-10T22:18:47.736Z,97696
2017-12-10T22:21:16.882Z,97681
2017-12-10T22:23:46.547Z,97678
2017-12-10T22:26:16.440Z,97677
2017-12-10T22:28:45.613Z,97683
2017-12-10T22:31:14.755Z,97682
2017-12-10T22:33:43.919Z,97677
2017-12-10T22:36:13.047Z,97671
2017-12-10T22:38:42.997Z,97676
2017-12-10T22:41:12.576Z,97680
2017-12-10T22:43:41.651Z,97672
2017-12-10T22:46:10.731Z,97678
2017-12-10T22:48:40.236Z,97679
2017-12-10T22:51:09.331Z,97677
2017-12-10T22:53:39.185Z,97668
2017-12-10T22:56:08.300Z,97664
2017-12-10T22:58:37.379Z,97665
2017-12-10T23:01:07.250Z,97668
2017-12-10T23:03:36.993Z,97660
2017-12-10T23:06:06.084Z,97668
2017-12-10T23:08:35.183Z,97673
2017-12-10T23:11:04.482Z,97671
2017-12-10T23:13:51.361Z,97671
2017-12-10T23:16:32.222Z,97667
2017-12-10T23:19:01.338Z,97659
2017-12-10T23:21:30.498Z,97665
2017-12-10T23:24:00.392Z,97663
2017-12-10T23:26:29.480Z,97668
2017-12-10T23:28:58.618Z,97671
2017-12-10T23:31:27.784Z,97668
2017-12-10T23:33:56.897Z,97669
2017-12-10T23:36:26.077Z,97670
2017-12-10T23:38:55.575Z,97668
2017-12-10T23:41:25.466Z,97662
2017-12-10T23:43:54.581Z,97658
2017-12-10T23:46:23.759Z,97660
2017-12-10T23:48:52.903Z,97655
2017-12-10T23:51:22.060Z,97659
2017-12-10T23:53:52.020Z,97662
2017-12-10T23:56:21.183Z,97660
2017-12-10T23:58:51.114Z,97655
